Map Display - EGCC to LIPR
(last flight recorded 26-11-2020, 20:34 - Andrew Siddall)

Aircraft Weights    Units : Maximums
Passengers :   119  
Cargo : kg 11,983 kg
Suggested Fuel Load : kg 11,267 kg
 
     
 
Dry Operating : 24,758 kg    
Total Payload : 0 kg 11,983 kg
 
Take Off : 33,954 kg 47,400 kg
 
Expected Landing : 28,083 kg 39,000 kg

Stuart Sutton-Young,  BA11 500,  G-AVMI,  .

Route Distance Previous
Flights
Average
Duration
Average
Fuel Flow
Average
Fuel Use
EGCC - Manchester
LIPR - Rimini Mil, Italy
812 nm 3 02:30 2,375 kg/h 5,871 kg

Current weather :-
2020/11/27 06:00
TAF EGCC 270457Z 2706/2812 VRB03KT 9999 SCT045
TEMPO 2706/2711 3000 BR PROB30 2706/2709 0200 FG VV/// PROB30 2709/2715 BKN006 PROB30
TEMPO 2711/2718 3000 BR
TEMPO 2718/2724 3000 BR PROB30
TEMPO 2720/2724 0200 FZFG VV///
TEMPO 2800/2812 6000 BKN012
2016/08/23 03:00
TAF LIPR 230200Z 2303/2312 04007KT CAVOK
BECMG 2308/2310 02010KT

Back to Virtual Airline